createdAt,value
2019-05-02T00:02:23.987Z,13.70
2019-05-02T00:06:25.622Z,12.90
2019-05-02T00:10:29.746Z,13.48
2019-05-02T00:14:33.199Z,11.63
2019-05-02T00:18:38.998Z,12.80
2019-05-02T00:22:42.725Z,15.88
2019-05-02T00:26:46.443Z,7.60
2019-05-02T00:30:49.888Z,13.35
2019-05-02T00:34:53.330Z,13.93
2019-05-02T00:38:56.785Z,12.33
2019-05-02T00:43:00.221Z,13.55
2019-05-02T00:47:06.021Z,9.15
2019-05-02T00:51:10.542Z,9.60
2019-05-02T00:55:14.059Z,14.43
2019-05-02T00:59:17.511Z,14.65
2019-05-02T01:03:22.082Z,9.85
2019-05-02T01:07:26.922Z,11.97
2019-05-02T01:11:32.219Z,10.25
2019-05-02T01:15:39.198Z,10.40
2019-05-02T01:19:41.058Z,12.43
2019-05-02T01:23:44.514Z,8.75
2019-05-02T01:28:12.608Z,16.06
2019-05-02T01:32:14.826Z,13.22
2019-05-02T01:36:36.701Z,14.68
2019-05-02T01:40:40.277Z,10.88
2019-05-02T01:44:43.739Z,12.40
2019-05-02T01:48:47.801Z,12.33
2019-05-02T01:52:53.722Z,13.28
2019-05-02T01:56:56.598Z,13.33
2019-05-02T02:01:00.378Z,16.45
2019-05-02T02:05:07.248Z,18.27
2019-05-02T02:09:10.731Z,14.35
2019-05-02T02:13:14.492Z,14.23
2019-05-02T02:17:17.937Z,14.70
2019-05-02T02:21:38.514Z,17.48
2019-05-02T02:26:00.175Z,13.30
2019-05-02T02:30:05.699Z,16.35
2019-05-02T02:34:09.142Z,17.85
2019-05-02T02:38:12.915Z,15.75
2019-05-02T02:42:16.350Z,16.67
2019-05-02T02:46:30.715Z,13.22
2019-05-02T02:50:36.595Z,17.30
2019-05-02T02:54:43.450Z,18.47
2019-05-02T02:58:47.913Z,19.13
2019-05-02T03:02:48.452Z,18.50
2019-05-02T03:06:53.755Z,17.77
2019-05-02T03:10:57.673Z,17.02
2019-05-02T03:15:02.776Z,18.57
2019-05-02T03:19:06.373Z,18.80
2019-05-02T03:23:15.057Z,19.23
2019-05-02T03:27:15.294Z,18.00
2019-05-02T03:31:25.820Z,18.75
2019-05-02T03:35:40.491Z,17.80
2019-05-02T03:39:29.907Z,18.93
2019-05-02T03:43:33.337Z,18.25
2019-05-02T03:47:43.671Z,20.57
2019-05-02T03:51:41.980Z,17.13
2019-05-02T03:55:45.438Z,19.05
2019-05-02T03:59:48.951Z,30.32
2019-05-02T04:03:53.328Z,18.77
2019-05-02T04:07:57.185Z,21.43
2019-05-02T04:12:01.619Z,24.37
2019-05-02T04:16:14.818Z,22.73
2019-05-02T04:20:12.657Z,22.73
2019-05-02T04:24:16.311Z,17.37
2019-05-02T04:28:21.847Z,28.83
2019-05-02T04:32:25.292Z,31.85
2019-05-02T04:36:28.776Z,28.30
2019-05-02T04:40:35.139Z,39.98
2019-05-02T04:44:41.100Z,33.13
2019-05-02T04:48:48.529Z,37.50
2019-05-02T04:52:53.593Z,26.70
2019-05-02T04:56:55.474Z,34.50
2019-05-02T05:01:01.713Z,38.42
2019-05-02T05:05:05.362Z,36.03
2019-05-02T05:09:10.445Z,36.77
2019-05-02T05:13:19.864Z,41.97
2019-05-02T05:17:20.001Z,39.83
2019-05-02T05:21:24.653Z,36.63
2019-05-02T05:25:33.199Z,32.53
2019-05-02T05:29:37.488Z,40.90
2019-05-02T05:33:41.038Z,35.58
2019-05-02T05:37:49.115Z,40.03
2019-05-02T05:41:52.323Z,40.20
2019-05-02T05:46:06.102Z,44.43
2019-05-02T05:50:01.163Z,40.00
2019-05-02T05:54:05.234Z,36.35
2019-05-02T05:58:15.318Z,38.02
2019-05-02T06:02:14.783Z,34.50
2019-05-02T06:06:22.791Z,37.83
2019-05-02T06:10:23.525Z,42.17
2019-05-02T06:14:27.259Z,41.90
2019-05-02T06:18:30.727Z,32.42
2019-05-02T06:22:34.478Z,42.88
2019-05-02T06:26:37.933Z,42.60
2019-05-02T06:30:41.395Z,40.03
2019-05-02T06:34:46.613Z,38.45
2019-05-02T06:38:52.102Z,42.57
2019-05-02T06:42:55.502Z,37.43
2019-05-02T06:47:03.720Z,39.13
2019-05-02T06:51:04.188Z,37.93
2019-05-02T06:55:08.194Z,34.35
2019-05-02T06:59:13.125Z,44.45
2019-05-02T07:03:16.956Z,31.63
2019-05-02T07:07:24.951Z,33.63
2019-05-02T07:11:26.226Z,27.77
2019-05-02T07:15:48.448Z,32.93
2019-05-02T07:19:53.272Z,35.43
2019-05-02T07:23:56.724Z,37.23
2019-05-02T07:28:00.180Z,35.83
2019-05-02T07:32:03.689Z,34.33
2019-05-02T07:36:07.429Z,35.57
2019-05-02T07:40:12.010Z,38.13
2019-05-02T07:44:17.010Z,24.07
2019-05-02T07:48:20.466Z,43.65
2019-05-02T07:52:23.906Z,32.17
2019-05-02T07:56:27.358Z,43.20
2019-05-02T08:00:32.045Z,22.77
2019-05-02T08:04:36.584Z,26.70
2019-05-02T08:08:40.042Z,35.85
2019-05-02T08:12:43.565Z,40.33
2019-05-02T08:17:05.519Z,26.68
2019-05-02T08:21:01.382Z,26.50
2019-05-02T08:25:10.905Z,21.97
2019-05-02T08:29:15.490Z,37.75
2019-05-02T08:33:18.930Z,30.70
2019-05-02T08:37:22.373Z,33.02
2019-05-02T08:41:25.834Z,32.67
2019-05-02T08:45:33.106Z,33.58
2019-05-02T08:49:34.781Z,39.48
2019-05-02T08:53:38.223Z,33.08
2019-05-02T08:57:41.673Z,37.30
2019-05-02T09:01:49.492Z,30.52
2019-05-02T09:05:50.623Z,47.03
2019-05-02T09:09:55.605Z,45.98
2019-05-02T09:13:59.193Z,47.67
2019-05-02T09:18:02.924Z,45.03
2019-05-02T09:22:07.592Z,50.20
2019-05-02T09:26:12.025Z,46.95
2019-05-02T09:30:17.200Z,52.80
2019-05-02T09:34:22.870Z,48.87
2019-05-02T09:38:26.474Z,46.87
2019-05-02T09:42:32.363Z,46.85
2019-05-02T09:50:38.576Z,44.30
2019-05-02T09:54:45.998Z,46.75
2019-05-02T09:58:49.404Z,46.35
2019-05-02T10:02:53.077Z,52.60
2019-05-02T10:06:56.865Z,33.92
2019-05-02T10:11:02.480Z,70.62
2019-05-02T10:15:08.382Z,43.83
2019-05-02T10:19:13.529Z,56.53
2019-05-02T10:27:21.747Z,59.25
2019-05-02T10:31:27.476Z,56.95
2019-05-02T10:35:38.885Z,39.20
2019-05-02T10:39:38.032Z,57.05
2019-05-02T10:43:42.444Z,40.67
2019-05-02T10:47:46.289Z,60.25
2019-05-02T10:51:51.864Z,61.02
2019-05-02T10:55:56.602Z,73.13
2019-05-02T11:00:00.051Z,57.70
2019-05-02T11:04:05.150Z,64.37
2019-05-02T11:08:08.630Z,54.88
2019-05-02T11:12:16.539Z,54.67
2019-05-02T11:16:38.089Z,50.05
2019-05-02T11:20:42.112Z,51.83
2019-05-02T11:24:45.770Z,52.53
2019-05-02T11:28:49.227Z,49.35
2019-05-02T11:32:52.690Z,55.98
2019-05-02T11:36:56.146Z,54.45
2019-05-02T11:40:59.598Z,48.20
2019-05-02T11:45:03.497Z,55.30
2019-05-02T11:49:06.940Z,51.53
2019-05-02T11:53:23.209Z,52.75
2019-05-02T11:57:15.839Z,55.90
2019-05-02T12:01:25.706Z,34.92
2019-05-02T12:05:26.587Z,36.25
2019-05-02T12:09:31.954Z,32.23
2019-05-02T12:13:35.910Z,45.85
2019-05-02T12:17:39.445Z,36.58
2019-05-02T12:21:46.314Z,49.48
2019-05-02T12:25:51.850Z,39.10
2019-05-02T12:29:57.901Z,47.63
2019-05-02T12:34:02.634Z,32.73
2019-05-02T12:42:09.348Z,40.05
2019-05-02T12:46:13.179Z,29.90
2019-05-02T12:50:16.770Z,38.37
2019-05-02T12:54:21.926Z,38.30
2019-05-02T12:58:25.797Z,36.95
2019-05-02T13:02:33.569Z,34.60
2019-05-02T13:06:37.474Z,38.70
2019-05-02T13:11:06.175Z,42.08
2019-05-02T13:15:07.867Z,42.70
2019-05-02T13:19:11.963Z,34.90
2019-05-02T13:23:17.261Z,36.10
2019-05-02T13:27:22.824Z,37.97
2019-05-02T13:31:28.021Z,31.23
2019-05-02T13:35:42.137Z,32.05
2019-05-02T13:39:47.750Z,32.03
2019-05-02T13:43:52.607Z,29.12
2019-05-02T13:47:56.123Z,33.83
2019-05-02T13:51:59.917Z,26.40
2019-05-02T13:56:05.011Z,32.17
2019-05-02T14:00:09.942Z,31.68
2019-05-02T14:04:15.011Z,33.15
2019-05-02T14:08:27.581Z,30.68
2019-05-02T14:12:45.187Z,33.67
2019-05-02T14:16:48.922Z,31.95
2019-05-02T14:20:52.781Z,24.77
2019-05-02T14:24:56.414Z,30.63
2019-05-02T14:28:59.860Z,34.65
2019-05-02T14:33:04.959Z,38.15
2019-05-02T14:37:08.402Z,24.60
2019-05-02T14:41:13.627Z,39.80
2019-05-02T14:45:27.402Z,27.48
2019-05-02T14:49:25.541Z,36.10
2019-05-02T14:53:28.082Z,36.25
2019-05-02T14:57:32.639Z,37.28
2019-05-02T15:01:36.345Z,38.20
2019-05-02T15:05:39.809Z,43.05
2019-05-02T15:09:43.260Z,38.02
2019-05-02T15:13:46.713Z,40.33
2019-05-02T15:17:50.167Z,33.08
2019-05-02T15:21:55.932Z,33.25
2019-05-02T15:25:59.078Z,39.93
2019-05-02T15:30:06.772Z,38.33
2019-05-02T15:34:22.786Z,30.88
2019-05-02T15:38:28.217Z,37.73
2019-05-02T15:42:32.286Z,39.45
2019-05-02T15:46:35.915Z,41.13
2019-05-02T15:50:48.817Z,40.95
2019-05-02T15:54:44.922Z,41.37
2019-05-02T15:58:48.392Z,43.23
2019-05-02T16:02:52.027Z,39.05
2019-05-02T16:07:00.374Z,37.37
2019-05-02T16:11:02.976Z,40.92
2019-05-02T16:15:13.175Z,42.25
2019-05-02T16:19:14.992Z,45.83
2019-05-02T16:23:18.987Z,44.13
2019-05-02T16:27:26.765Z,41.50
2019-05-02T16:31:31.566Z,38.20
2019-05-02T16:35:36.166Z,36.95
2019-05-02T16:39:42.648Z,38.60
2019-05-02T16:43:45.106Z,37.33
2019-05-02T16:47:49.849Z,37.53
2019-05-02T16:51:57.419Z,25.10
2019-05-02T16:56:05.468Z,41.28
2019-05-02T17:00:07.568Z,38.33
2019-05-02T17:04:12.784Z,43.23
2019-05-02T17:08:22.527Z,41.10
2019-05-02T17:12:26.452Z,34.45
2019-05-02T17:16:31.581Z,13.75
2019-05-02T17:20:35.310Z,15.37
2019-05-02T17:24:38.768Z,21.90
2019-05-02T17:28:46.828Z,23.55
2019-05-02T17:32:47.649Z,21.82
2019-05-02T17:36:51.922Z,22.82
2019-05-02T17:40:59.409Z,21.62
2019-05-02T17:45:03.688Z,17.50
2019-05-02T17:49:05.990Z,19.53
2019-05-02T17:53:11.513Z,18.45
2019-05-02T17:57:15.165Z,15.98
2019-05-02T18:01:26.459Z,17.45
2019-05-02T18:05:32.001Z,19.05
2019-05-02T18:13:39.043Z,9.65
2019-05-02T18:17:42.846Z,12.82
2019-05-02T18:21:46.601Z,11.35
2019-05-02T18:25:52.419Z,7.05
2019-05-02T18:29:55.756Z,7.45
2019-05-02T18:34:01.715Z,4.83
2019-05-02T18:42:08.195Z,5.05
2019-05-02T18:46:12.781Z,4.58
2019-05-02T18:50:44.405Z,5.63
2019-05-02T18:54:44.024Z,3.65
2019-05-02T18:58:47.781Z,3.33
2019-05-02T19:02:54.585Z,3.20
2019-05-02T19:06:57.251Z,4.75
2019-05-02T19:11:08.960Z,4.25
2019-05-02T19:19:22.461Z,2.58
2019-05-02T19:23:25.959Z,4.03
2019-05-02T19:27:42.810Z,3.27
2019-05-02T19:35:52.419Z,7.20
2019-05-02T19:39:56.847Z,2.20
2019-05-02T19:44:02.212Z,4.33
2019-05-02T19:48:05.502Z,5.43
2019-05-02T19:52:12.713Z,6.97
2019-05-02T20:01:26.344Z,5.75
2019-05-02T20:05:27.400Z,4.70
2019-05-02T20:09:31.883Z,6.12
2019-05-02T20:13:35.469Z,4.05
2019-05-02T20:17:39.196Z,4.40
2019-05-02T20:21:46.928Z,5.55
2019-05-02T20:25:52.309Z,7.17
2019-05-02T20:33:58.852Z,5.37
2019-05-02T20:38:04.009Z,6.47
2019-05-02T20:42:07.710Z,12.97
2019-05-02T20:46:12.137Z,5.20
2019-05-02T20:50:15.801Z,3.87
2019-05-02T20:54:20.069Z,6.63
2019-05-02T20:58:23.582Z,4.40
2019-05-02T21:02:27.346Z,12.80
2019-05-02T21:06:40.904Z,17.87
2019-05-02T21:10:39.477Z,11.35
2019-05-02T21:14:42.925Z,6.17
2019-05-02T21:18:46.445Z,8.30
2019-05-02T21:22:50.170Z,5.30
2019-05-02T21:26:53.926Z,7.22
2019-05-02T21:30:57.763Z,10.40
2019-05-02T21:35:02.799Z,10.60
2019-05-02T21:39:13.815Z,7.53
2019-05-02T21:43:17.577Z,7.77
2019-05-02T21:47:22.563Z,4.97
2019-05-02T21:51:39.961Z,10.20
2019-05-02T21:55:47.753Z,9.53
2019-05-02T21:59:52.687Z,9.60
2019-05-02T22:03:56.301Z,3.00
2019-05-02T22:07:59.733Z,6.00
2019-05-02T22:12:03.164Z,5.12
2019-05-02T22:16:06.858Z,11.40
2019-05-02T22:20:12.246Z,6.70
2019-05-02T22:24:15.519Z,13.53
2019-05-02T22:28:18.950Z,3.40
2019-05-02T22:32:22.656Z,6.37
2019-05-02T22:36:26.114Z,9.88
2019-05-02T22:40:29.841Z,6.10
2019-05-02T22:44:33.325Z,5.17
2019-05-02T22:48:36.761Z,12.40
2019-05-02T22:52:41.652Z,6.78
2019-05-02T22:56:45.201Z,9.50
2019-05-02T23:00:48.920Z,10.23
2019-05-02T23:04:52.798Z,6.60
2019-05-02T23:08:56.649Z,5.50
2019-05-02T23:13:00.089Z,8.33
2019-05-02T23:17:03.540Z,5.30
2019-05-02T23:21:06.976Z,9.95
2019-05-02T23:25:29.330Z,6.40
2019-05-02T23:29:32.769Z,9.13
2019-05-02T23:33:54.486Z,6.00
2019-05-02T23:37:58.297Z,11.60
2019-05-02T23:42:02.075Z,4.70
2019-05-02T23:46:05.822Z,8.80
2019-05-02T23:50:12.196Z,10.13
2019-05-02T23:54:16.102Z,7.47
2019-05-02T23:58:19.539Z,6.05
